Latest Coastal Weather Observations for Sydney Airport

IDN60701

Issued at 4:21 am EST Monday 3 August 2015 (issued every 10 minutes, with the page automatically refreshed every 10 minutes)

About coastal observations | Map of coastal stations | Coastal observations for NSW | Marine services | Other Formats
Station Details ID: 066037 Name: SYDNEY AIRPORT AMO Lat: -33.95 Lon: 151.17 Height: 6.0 m
Data from the previous 72 hours. | See also: Recent months at Sydney Airport
Date/Time
EST
Temp

°C
Wind Pressure Rain
since 9am
mm
Weather Cloud Vis
km
Sea
Height
m
Swell
Dir
 
Speed
knots
Gust
knots
hPa Trend Height
m
Period
s
Dir
03/04:00am 10.7 WSW 16 19 1013.3 - 0.0 - - 10 - - - -
03/03:30am 10.8 WSW 19 25 1013.2 - 0.0 - - 10 - - - -
03/03:00am 11.2 WSW 19 24 1013.5 R 0.0 Fine Mostly clear 30 - - - -
03/02:30am 11.5 WSW 17 22 1013.5 - 0.0 - - 10 - - - -
03/02:00am 12.3 SW 12 16 1013.6 - 0.0 - - 10 - - - -
03/01:30am 12.8 SW 15 17 1013.4 - 0.0 - - 10 - - - -
03/12:30am 14.0 WSW 12 15 1013.4 - 0.0 - - 10 - - - -
 
Date/Time
EST
Temp

°C
Wind Pressure Rain
since 9am
mm
Weather Cloud Vis
km
Sea
Height
m
Swell
Dir
 
Speed
knots
Gust
knots
hPa Trend Height
m
Period
s
Dir
02/11:30pm 14.6 WSW 10 14 1013.1 - 0.0 - - 10 - - - -
02/11:00pm 15.4 W 11 14 1013.1 - 0.0 - - 10 - - - -
02/10:30pm 15.8 SSW 5 8 1013.5 - 0.0 - - 10 - - - -
02/10:00pm 16.6 S 7 9 1013.6 - 0.0 - - 10 - - - -
02/09:30pm 17.6 WNW 14 19 1013.0 - 0.0 - - 10 - - - -
02/09:00pm 18.3 NW 19 24 1012.5 S 0.0 Fine Partly cloudy 30 - - - -
02/08:30pm 19.1 WNW 21 26 1012.6 - 0.0 - - 10 - - - -
02/08:00pm 20.1 WNW 17 24 1012.5 - 0.0 - - 10 - - - -
02/07:30pm 19.9 WNW 14 17 1012.6 - 0.0 - - 10 - - - -
02/07:00pm 20.1 W 17 22 1012.8 - 0.0 - - 10 - - - -
02/06:30pm 20.5 WSW 16 19 1012.3 - 0.0 - - 10 - - - -
02/06:00pm 21.4 W 12 18 1011.3 R 0.0 Fine Mostly clear 30 - - - -
02/05:30pm 22.5 WNW 12 16 1010.8 - 0.0 - - 10 - - - -
02/05:00pm 23.8 NW 15 18 1010.2 - 0.0 - - 10 - - - -
02/04:30pm 24.7 NW 17 24 1009.8 - 0.0 - - 10 - - - -
02/04:00pm 25.1 NW 17 27 1009.7 - 0.0 - - 10 - - - -
02/03:30pm 25.0 NNW 15 21 1009.5 - 0.0 - - 10 - - - -
02/03:00pm 24.6 NNW 15 20 1009.8 F 0.0 Fine Partly cloudy 30 - - - -
02/02:44pm 24.3 NW 15 24 1010.1 - 0.0 - - 10 - - - -
02/02:30pm 23.6 NW 9 13 1010.2 - 0.0 - Partly cloudy 10 - - - -
02/02:00pm 21.4 ENE 5 5 1010.4 - 0.0 - - 10 - - - -
02/01:30pm 19.6 SSW 6 8 1011.0 - 0.0 - - 10 - - - -
02/01:00pm 18.5 S 5 7 1011.6 - 0.0 - - 10 - - - -
02/12:30pm 19.3 ENE 3 3 1011.8 - 0.0 - - 10 - - - -
02/12:00pm 19.1 W 5 7 1012.6 F 0.0 Fine Mostly cloudy 30 - - - -
02/11:30am 19.1 NW 5 7 1012.9 - 0.0 - - 10 - - - -
02/11:00am 16.8 W 4 5 1013.8 - 0.0 - - 10 - - - -
02/10:30am 17.6 WSW 6 8 1014.5 - 0.0 - - 10 - - - -
02/10:00am 15.6 WNW 4 5 1014.7 - 0.0 - - 10 - - - -
02/09:30am 14.1 W 5 6 1015.2 - 0.0 - - 10 - - - -
02/09:00am 13.9 SW 8 10 1015.4 F 0.0 Fine Partly cloudy 30 - - - -
02/08:30am 13.6 WSW 5 6 1015.4 - 0.0 - - 10 - - - -
02/08:00am 12.6 WSW 5 7 1015.5 - 0.0 - - 10 - - - -
02/07:30am 11.9 SW 5 6 1015.5 - 0.0 - - 10 - - - -
02/07:00am 12.2 WSW 5 7 1015.2 - 0.0 - - 10 - - - -
02/06:30am 11.7 WSW 3 7 1015.1 - 0.0 - - 10 - - - -
02/06:00am 12.0 WSW 2 4 1015.1 F 0.0 Fine Partly cloudy 30 - - - -
02/05:30am 13.0 WSW 6 8 1015.2 - 0.0 - - 10 - - - -
02/05:00am 12.9 W 6 6 1015.3 - 0.0 - - 10 - - - -
02/04:30am 14.0 WNW 4 5 1015.2 - 0.0 - Partly cloudy 10 - - - -
02/04:00am 14.4 WNW 4 4 1015.5 - 0.0 - Cloudy 10 - - - -
02/03:30am 14.4 NNW 2 3 1015.5 - 0.0 - Cloudy 10 - - - -
02/03:00am 14.8 NNW 5 7 1015.6 F 0.0 Fine Mostly cloudy 30 - - - -
02/02:30am 14.9 CALM 0 1 1016.0 - 0.0 - Cloudy 10 - - - -
02/02:00am 14.1 SW 5 6 1016.4 - 0.0 - Partly cloudy 10 - - - -
02/01:30am 14.3 NNW 5 6 1016.5 - 0.0 - - 10 - - - -
02/01:00am 15.9 N 7 7 1016.4 - 0.0 - - 10 - - - -
02/12:30am 16.4 NNW 8 9 1016.3 - 0.0 - - 10 - - - -
02/12:00am 16.4 NNW 7 8 1016.5 F 0.0 Fine Mostly clear 30 - - - -
 
Date/Time
EST
Temp

°C
Wind Pressure Rain
since 9am
mm
Weather Cloud Vis
km
Sea
Height
m
Swell
Dir
 
Speed
knots
Gust
knots
hPa Trend Height
m
Period
s
Dir
01/11:30pm 16.4 CALM 0 0 1016.7 - 0.0 - - 10 - - - -
01/11:00pm 16.7 CALM 0 0 1017.1 - 0.0 - - 10 - - - -
01/10:30pm 16.7 N 3 5 1017.3 - 0.0 - - 10 - - - -
01/10:00pm 18.4 E 3 4 1017.1 - 0.0 - Partly cloudy 10 - - - -
01/09:30pm 18.8 NNW 5 7 1017.4 - 0.0 - Cloudy 10 - - - -
01/09:00pm 19.1 N 7 9 1017.4 R 0.0 Fine Mostly cloudy 30 - - - -
01/08:30pm 18.5 N 8 9 1017.3 - 0.0 - Partly cloudy 10 - - - -
01/08:00pm 18.7 NNW 9 12 1016.8 - 0.0 - Partly cloudy 10 - - - -
01/07:30pm 19.1 N 10 12 1016.8 - 0.0 - Partly cloudy 10 - - - -
01/07:00pm 20.0 N 9 11 1016.4 - 0.0 - Cloudy 10 - - - -
01/06:30pm 20.0 N 8 9 1016.2 - 0.0 - Cloudy 10 - - - -
01/06:00pm 19.9 N 8 9 1016.1 S 0.0 Fine Mostly cloudy 30 - - - -
01/05:30pm 19.7 N 11 13 1015.6 - 0.0 - - 10 - - - -
01/05:00pm 20.7 NNW 13 18 1015.3 - 0.0 - - 10 - - - -
01/04:30pm 20.9 NNW 15 20 1015.1 - 0.0 - - 10 - - - -
01/04:00pm 21.3 NNW 16 21 1015.0 - 0.0 - - 10 - - - -
01/03:30pm 22.2 NNW 16 21 1015.1 - 0.0 - Partly cloudy 10 - - - -
01/03:00pm 21.9 NW 19 25 1015.3 R 0.0 Fine Mostly cloudy 30 - - - -
01/02:30pm 22.4 NW 18 23 1015.2 - 0.0 - Partly cloudy 10 - - - -
01/02:07pm 22.3 NW 20 31 1015.1 - 0.0 - - 10 - - - -
01/02:00pm 22.9 NW 18 23 1015.1 - 0.0 - - 10 - - - -
01/01:30pm 22.3 WNW 24 29 1015.3 - 0.0 - - 10 - - - -
01/01:00pm 22.4 NW 22 31 1015.2 - 0.0 - - 10 - - - -
01/12:30pm 21.8 WNW 21 29 1015.4 - 0.0 - - 10 - - - -
01/12:07pm 22.2 WNW 16 27 1015.7 - 0.0 - - 10 - - - -
01/12:00pm 22.1 WNW 15 22 1015.9 F 0.0 Fine Partly cloudy 30 - - - -
01/11:30am 21.8 NW 13 19 1016.4 - 0.0 - - 10 - - - -
01/11:00am 20.4 N 11 16 1017.0 - 0.0 - - 10 - - - -
01/10:30am 18.4 W 5 6 1017.9 - 0.0 - - 10 - - - -
01/10:00am 15.1 SE 2 5 1018.0 - 0.0 - - 10 - - - -
01/09:30am 15.3 NW 7 8 1018.2 - 0.0 - Partly cloudy 10 - - - -
01/09:00am 13.9 WNW 5 6 1018.5 F 0.0 Fine Mostly cloudy 30 - - - -
01/08:30am 11.6 WNW 7 9 1018.6 - 0.0 - - 10 - - - -
01/08:00am 11.9 WNW 6 7 1018.4 - 0.0 - - 10 - - - -
01/07:30am 9.1 WNW 6 7 1018.3 - 0.0 - - 10 - - - -
01/07:00am 9.7 NNW 4 6 1018.1 - 0.0 - - 10 - - - -
01/06:30am 8.7 N 5 6 1017.8 - 0.0 - - 10 - - - -
01/06:00am 7.7 N 4 7 1017.9 F 0.0 Haze Mostly clear 20 - - - -
01/05:30am 7.9 NW 3 4 1017.9 - 0.0 - - 10 - - - -
01/05:00am 8.7 NW 5 7 1017.9 - 0.0 - - 10 - - - -
01/04:30am 8.1 NW 8 10 1018.4 - 0.0 - - 10 - - - -
01/04:00am 8.7 WNW 7 8 1018.7 - 0.0 - - 10 - - - -
01/03:30am 10.2 NNW 5 6 1018.6 - 0.0 - - 10 - - - -
01/03:00am 9.8 NNW 7 9 1018.9 F 0.0 Fine Mostly clear 30 - - - -
01/02:30am 10.4 NNW 8 9 1019.2 - 0.0 - - 10 - - - -
01/02:00am 10.4 NNW 6 8 1019.5 - 0.0 - - 10 - - - -
01/01:30am 10.8 NNW 7 8 1019.5 - 0.0 - - 10 - - - -
01/01:00am 11.4 NNW 10 11 1019.7 - 0.0 - - 10 - - - -
01/12:30am 11.9 N 8 10 1020.3 - 0.0 - - 10 - - - -
01/12:00am 13.1 NNW 9 11 1020.6 F 0.0 Fine Partly cloudy 30 - - - -
 
Date/Time
EST
Temp

°C
Wind Pressure Rain
since 9am
mm
Weather Cloud Vis
km
Sea
Height
m
Swell
Dir
 
Speed
knots
Gust
knots
hPa Trend Height
m
Period
s
Dir
31/11:30pm 13.7 NW 6 8 1021.0 - 0.0 - - 10 - - - -
31/11:00pm 14.1 NNW 6 7 1021.1 - 0.0 - - 10 - - - -
31/10:30pm 14.7 NW 7 9 1021.2 - 0.0 - - 10 - - - -
31/10:00pm 14.5 NW 7 10 1021.1 - 0.0 - - 10 - - - -
31/09:30pm 15.8 NNE 5 8 1020.7 - 0.0 - - 10 - - - -
31/09:00pm 15.9 NNW 5 7 1020.7 F 0.0 Fine Clear 40 - - - -
31/08:30pm 15.6 NNE 6 8 1020.6 - 0.0 - - 10 - - - -
31/08:00pm 15.5 NE 8 10 1020.6 - 0.0 - - 10 - - - -
31/07:30pm 15.4 NE 9 10 1020.6 - 0.0 - - 10 - - - -
31/07:00pm 15.4 ENE 9 10 1020.4 - 0.0 - - 10 - - - -
31/06:30pm 15.8 E 9 10 1020.1 - 0.0 - - 10 - - - -
31/06:00pm 16.0 E 9 11 1020.1 S 0.0 Fine Mostly clear 40 - - - -
31/05:30pm 16.0 E 10 12 1019.8 - 0.0 - - 10 - - - -
31/05:00pm 16.9 E 10 14 1019.5 - 0.0 - - 10 - - - -
31/04:30pm 19.7 NNW 6 9 1019.2 - 0.0 - - 10 - - - -
31/04:00pm 20.9 NNW 6 8 1019.3 - 0.0 - - 10 - - - -
31/03:30pm 21.0 WSW 5 9 1019.3 - 0.0 - - 10 - - - -
31/03:00pm 19.8 WSW 7 16 1019.2 F 0.0 Fine Mostly clear 40 - - - -
31/02:30pm 19.0 SW 7 9 1019.3 - 0.0 - - 10 - - - -
31/02:00pm 18.9 WSW 7 10 1019.5 - 0.0 - - 10 - - - -
31/01:30pm 18.9 W 13 16 1019.8 - 0.0 - - 10 - - - -
31/01:00pm 19.2 W 10 16 1019.9 - 0.0 - - 10 - - - -
31/12:30pm 20.4 W 10 14 1020.2 - 0.0 - - 10 - - - -
31/12:00pm 19.4 W 9 16 1020.7 R 0.0 Fine Mostly clear 30 - - - -
31/11:30am 19.2 WNW 12 16 1021.0 - 0.0 - - 10 - - - -
31/11:00am 18.8 WNW 11 14 1021.5 - 0.0 - - 10 - - - -
31/10:30am 18.5 W 10 14 1021.7 - 0.0 - - 10 - - - -
31/10:00am 17.9 WSW 7 10 1021.6 - 0.0 - - 10 - - - -
31/09:30am 17.1 WNW 9 13 1021.5 - 0.0 - - 10 - - - -
31/09:00am 16.5 WNW 9 13 1021.4 R 0.0 Fine Mostly clear 30 - - - -
31/08:30am 15.8 ENE 6 8 1021.2 - 0.0 - Mostly clear 10 - - - -
31/08:00am 14.2 NW 10 12 1020.8 - 0.0 - Mostly clear 10 - - - -
31/07:30am 13.1 N 7 9 1020.6 - 0.0 - Mostly clear 10 - - - -
31/07:00am 11.9 WNW 3 6 1020.7 - 0.0 - Mostly clear 10 - - - -
31/06:30am 12.7 S 4 7 1020.0 - 0.0 - Mostly clear 10 - - - -
31/06:00am 10.8 E 7 8 1019.6 R 0.0 Fine Mostly cloudy 30 - - - -
31/05:30am 13.4 NW 3 4 1019.2 - 0.0 - Cloudy 10 - - - -
31/05:00am 12.8 WNW 6 7 1019.0 - 0.0 - Cloudy 10 - - - -
31/04:30am 12.7 NW 9 10 1018.5 - 0.0 - Partly cloudy 10 - - - -

Other Formats:

Comma delimited format used in spreadsheet applications
http://www.bom.gov.au/fwo/IDN60701/IDN60701.94767.axf

JavaScript Object Notation format (JSON) in row-major order
http://www.bom.gov.au/fwo/IDN60701/IDN60701.94767.json